createdAt,value
2023-03-16T00:31:40.809Z,92973.00
2023-03-16T00:32:40.751Z,92971.00
2023-03-16T00:33:40.794Z,92967.00
2023-03-16T00:34:40.861Z,92971.00
2023-03-16T00:36:40.991Z,92971.00
2023-03-16T00:37:41.105Z,92973.00
2023-03-16T00:38:41.110Z,92973.00
2023-03-16T00:39:41.175Z,92971.00
2023-03-16T00:50:41.882Z,92975.00
2023-03-16T01:01:42.704Z,92965.00
2023-03-16T03:00:51.580Z,92961.00
2023-03-16T03:01:50.660Z,92961.00
2023-03-16T03:02:50.778Z,92965.00
2023-03-16T03:03:50.795Z,92959.00
2023-03-16T03:04:50.847Z,92961.00
2023-03-16T03:05:50.931Z,92961.00
2023-03-16T03:06:50.996Z,92963.00
2023-03-16T03:07:51.057Z,92963.00
2023-03-16T03:08:51.124Z,92965.00
2023-03-16T03:09:51.203Z,92963.00
2023-03-16T03:10:51.268Z,92965.00
2023-03-16T03:11:51.326Z,92967.00
2023-03-16T03:12:51.387Z,92963.00
2023-03-16T03:13:51.456Z,92965.00
2023-03-16T03:14:52.096Z,92963.00
2023-03-16T03:15:51.601Z,92963.00
2023-03-16T03:16:51.616Z,92963.00
2023-03-16T03:17:51.678Z,92963.00
2023-03-16T03:18:51.799Z,92963.00
2023-03-16T03:19:51.793Z,92961.00
2023-03-16T03:20:51.853Z,92959.00
2023-03-16T03:21:51.925Z,92957.00
2023-03-16T03:22:51.978Z,92959.00
2023-03-16T03:23:52.040Z,92959.00
2023-03-16T03:24:52.096Z,92961.00
2023-03-16T03:25:52.164Z,92963.00
2023-03-16T03:26:52.209Z,92963.00
2023-03-16T03:27:52.376Z,92961.00
2023-03-16T03:28:52.333Z,92961.00
2023-03-16T03:29:52.405Z,92963.00
2023-03-16T03:30:52.458Z,92961.00
2023-03-16T03:31:52.625Z,92957.00
2023-03-16T03:32:52.712Z,92957.00
2023-03-16T03:33:52.638Z,92959.00
2023-03-16T03:34:52.691Z,92963.00
2023-03-16T03:35:52.776Z,92963.00
2023-03-16T03:36:52.828Z,92965.00
2023-03-16T03:37:52.869Z,92965.00
2023-03-16T03:38:52.946Z,92965.00
2023-03-16T03:39:52.998Z,92965.00
2023-03-16T03:40:53.063Z,92963.00
2023-03-16T03:41:53.116Z,92961.00
2023-03-16T03:42:54.102Z,92961.00
2023-03-16T03:43:53.240Z,92963.00
2023-03-16T03:44:53.296Z,92961.00
2023-03-16T03:45:53.441Z,92963.00
2023-03-16T03:46:53.417Z,92961.00
2023-03-16T03:47:53.471Z,92961.00
2023-03-16T03:48:53.541Z,92961.00
2023-03-16T03:49:53.596Z,92963.00
2023-03-16T03:50:53.659Z,92963.00
2023-03-16T03:51:53.726Z,92963.00
2023-03-16T03:52:53.786Z,92963.00
2023-03-16T03:53:53.855Z,92965.00
2023-03-16T03:54:53.914Z,92967.00
2023-03-16T03:55:53.979Z,92967.00
2023-03-16T03:56:54.067Z,92969.00
2023-03-16T03:57:54.111Z,92967.00
2023-03-16T03:58:54.169Z,92967.00
2023-03-16T03:59:54.216Z,92967.00
2023-03-16T04:00:54.278Z,92969.00
2023-03-16T04:01:54.355Z,92973.00
2023-03-16T04:02:54.504Z,92971.00
2023-03-16T04:03:54.461Z,92973.00
2023-03-16T04:04:54.575Z,92977.00
2023-03-16T04:05:54.585Z,92975.00
2023-03-16T04:06:54.630Z,92975.00
2023-03-16T04:07:54.701Z,92975.00
2023-03-16T04:08:54.790Z,92977.00
2023-03-16T04:09:54.835Z,92981.00
2023-03-16T04:10:54.879Z,92979.00
2023-03-16T04:11:54.948Z,92979.00
2023-03-16T04:12:55.005Z,92975.00
2023-03-16T04:13:55.067Z,92979.00
2023-03-16T04:14:55.126Z,92977.00
2023-03-16T04:15:55.182Z,92979.00
2023-03-16T04:16:55.264Z,92981.00
2023-03-16T04:17:55.298Z,92982.00
2023-03-16T04:18:55.357Z,92981.00
2023-03-16T04:19:55.420Z,92979.00
2023-03-16T04:20:55.495Z,92977.00
2023-03-16T04:21:55.534Z,92977.00
2023-03-16T04:22:55.593Z,92975.00
2023-03-16T04:23:55.650Z,92975.00
2023-03-16T04:24:55.722Z,92971.00
2023-03-16T04:25:55.829Z,92971.00
2023-03-16T04:26:55.834Z,92971.00
2023-03-16T04:27:55.892Z,92965.00
2023-03-16T04:28:55.956Z,92965.00
2023-03-16T04:29:56.015Z,92965.00
2023-03-16T04:30:56.148Z,92965.00
2023-03-16T04:31:56.217Z,92967.00
2023-03-16T04:32:56.254Z,92969.00
2023-03-16T04:33:56.237Z,92965.00
2023-03-16T04:34:56.308Z,92961.00
2023-03-16T04:35:56.416Z,92961.00
2023-03-16T04:36:56.431Z,92961.00
2023-03-16T04:37:56.559Z,92961.00
2023-03-16T04:38:56.556Z,92959.00
2023-03-16T04:39:56.618Z,92959.00
2023-03-16T04:40:56.678Z,92957.00
2023-03-16T04:41:56.748Z,92959.00
2023-03-16T04:42:56.815Z,92957.00
2023-03-16T04:43:56.880Z,92955.00
2023-03-16T04:44:56.948Z,92957.00
2023-03-16T04:45:57.069Z,92955.00
2023-03-16T05:28:00.630Z,92957.00
2023-03-16T05:41:00.668Z,92957.00
2023-03-16T05:42:00.729Z,92959.00
2023-03-16T05:43:00.869Z,92959.00
2023-03-16T05:44:00.858Z,92957.00
2023-03-16T05:45:01.120Z,92955.00
2023-03-16T05:46:01.645Z,92961.00
2023-03-16T05:47:01.118Z,92959.00
2023-03-16T05:48:01.156Z,92963.00
2023-03-16T05:49:01.233Z,92967.00
2023-03-16T05:50:01.310Z,92963.00
2023-03-16T05:51:01.352Z,92963.00
2023-03-16T05:52:01.418Z,92965.00
2023-03-16T05:53:01.491Z,92963.00
2023-03-16T05:54:01.568Z,92965.00
2023-03-16T05:55:01.627Z,92967.00
2023-03-16T05:56:01.721Z,92967.00
2023-03-16T05:57:01.767Z,92967.00
2023-03-16T05:58:03.738Z,92965.00
2023-03-16T05:59:01.896Z,92967.00
2023-03-16T06:00:01.915Z,92969.00
2023-03-16T06:11:02.227Z,92988.00
2023-03-16T06:12:02.252Z,92990.00
2023-03-16T06:13:02.297Z,92990.00
2023-03-16T06:14:02.314Z,92992.00
2023-03-16T06:15:02.344Z,92994.00
2023-03-16T06:16:02.459Z,92990.00
2023-03-16T06:17:02.418Z,92990.00
2023-03-16T06:18:02.470Z,92992.00
2023-03-16T06:19:02.513Z,92992.00
2023-03-16T06:20:03.150Z,92988.00
2023-03-16T06:21:02.648Z,92990.00
2023-03-16T06:22:02.783Z,92992.00
2023-03-16T06:23:02.807Z,92992.00
2023-03-16T06:24:02.979Z,92996.00
2023-03-16T06:25:02.944Z,92996.00
2023-03-16T06:26:03.065Z,92994.00
2023-03-16T06:27:05.126Z,92994.00
2023-03-16T06:28:03.168Z,92988.00
2023-03-16T06:29:04.175Z,92988.00
2023-03-16T06:30:03.296Z,92992.00
2023-03-16T06:31:03.357Z,92992.00
2023-03-16T06:32:03.420Z,92996.00
2023-03-16T06:33:03.584Z,92996.00
2023-03-16T06:34:03.548Z,92996.00
2023-03-16T06:35:03.665Z,92998.00
2023-03-16T06:36:03.699Z,92998.00
2023-03-16T06:37:06.592Z,93002.00
2023-03-16T06:38:03.733Z,93002.00
2023-03-16T06:39:03.774Z,93002.00
2023-03-16T06:40:03.815Z,93000.00
2023-03-16T06:41:03.865Z,93006.00
2023-03-16T06:42:10.902Z,93010.00
2023-03-16T06:43:03.969Z,93002.00
2023-03-16T06:44:03.997Z,93004.00
2023-03-16T06:45:04.604Z,93004.00
2023-03-16T06:46:04.116Z,93006.00
2023-03-16T06:47:04.128Z,93008.00
2023-03-16T06:48:04.145Z,93010.00
2023-03-16T06:49:06.695Z,93010.00
2023-03-16T06:50:04.330Z,93006.00
2023-03-16T06:51:04.360Z,93008.00
2023-03-16T06:52:04.417Z,93006.00
2023-03-16T06:53:04.439Z,93006.00
2023-03-16T06:54:04.473Z,93002.00
2023-03-16T06:55:04.607Z,93004.00
2023-03-16T06:56:04.577Z,93006.00
2023-03-16T06:57:04.659Z,93008.00
2023-03-16T06:58:04.714Z,93006.00
2023-03-16T06:59:05.684Z,93004.00
2023-03-16T07:00:04.851Z,93004.00
2023-03-16T07:01:05.734Z,93006.00
2023-03-16T07:02:04.996Z,93008.00
2023-03-16T07:03:05.065Z,93004.00
2023-03-16T07:04:05.195Z,93000.00
2023-03-16T07:05:05.234Z,93002.00
2023-03-16T07:06:05.300Z,92998.00
2023-03-16T07:07:05.394Z,92996.00
2023-03-16T07:08:05.458Z,92994.00
2023-03-16T07:09:05.565Z,92998.00
2023-03-16T07:10:05.640Z,92998.00
2023-03-16T07:11:05.741Z,92998.00
2023-03-16T07:12:05.802Z,92996.00
2023-03-16T07:13:06.693Z,92994.00
2023-03-16T07:14:05.935Z,92994.00
2023-03-16T07:15:06.014Z,92992.00
2023-03-16T07:17:06.211Z,92992.00
2023-03-16T07:18:08.191Z,92990.00
2023-03-16T07:19:06.382Z,92990.00
2023-03-16T07:20:06.453Z,92992.00
2023-03-16T07:21:06.540Z,92988.00
2023-03-16T07:22:06.624Z,92994.00
2023-03-16T07:23:06.702Z,92988.00
2023-03-16T07:24:06.795Z,92988.00
2023-03-16T07:25:07.611Z,92990.00
2023-03-16T07:26:06.966Z,92990.00
2023-03-16T07:27:07.038Z,92988.00
2023-03-16T07:28:07.112Z,92988.00
2023-03-16T07:29:07.222Z,92986.00
2023-03-16T07:30:07.294Z,92984.00
2023-03-16T08:11:14.715Z,92977.00
2023-03-16T08:12:16.346Z,92975.00
2023-03-16T08:42:10.813Z,92969.00
2023-03-16T08:48:10.628Z,92961.00
2023-03-16T08:49:10.695Z,92963.00
2023-03-16T08:50:10.779Z,92959.00
2023-03-16T08:51:10.874Z,92963.00
2023-03-16T08:52:11.238Z,92963.00
2023-03-16T08:53:11.037Z,92959.00
2023-03-16T08:54:11.118Z,92957.00
2023-03-16T08:55:11.207Z,92957.00
2023-03-16T08:56:11.318Z,92953.00
2023-03-16T08:57:11.372Z,92951.00
2023-03-16T08:58:11.465Z,92951.00
2023-03-16T08:59:27.025Z,92945.00
2023-03-16T09:00:12.576Z,92945.00
2023-03-16T09:01:11.591Z,92943.00
2023-03-16T09:02:11.682Z,92941.00
2023-03-16T09:03:11.647Z,92939.00
2023-03-16T09:04:11.726Z,92939.00
2023-03-16T09:05:11.688Z,92939.00
2023-03-16T09:06:11.680Z,92941.00
2023-03-16T09:07:11.760Z,92937.00
2023-03-16T09:08:11.739Z,92937.00
2023-03-16T09:09:11.768Z,92941.00
2023-03-16T09:10:11.845Z,92937.00
2023-03-16T09:11:11.883Z,92939.00
2023-03-16T09:12:11.961Z,92941.00
2023-03-16T09:13:12.043Z,92937.00
2023-03-16T09:14:12.107Z,92937.00
2023-03-16T09:15:12.248Z,92937.00
2023-03-16T09:16:12.399Z,92932.00
2023-03-16T09:17:12.262Z,92928.00
2023-03-16T09:18:12.298Z,92930.00
2023-03-16T09:19:12.333Z,92928.00
2023-03-16T09:20:22.312Z,92932.00
2023-03-16T09:21:13.396Z,92928.00
2023-03-16T09:22:12.423Z,92928.00
2023-03-16T09:23:12.466Z,92928.00
2023-03-16T09:24:13.240Z,92922.00
2023-03-16T09:25:12.635Z,92924.00
2023-03-16T09:26:12.726Z,92924.00
2023-03-16T09:27:12.933Z,92920.00
2023-03-16T09:28:12.872Z,92918.00
2023-03-16T09:29:13.747Z,92916.00
2023-03-16T09:30:13.019Z,92914.00
2023-03-16T09:31:12.984Z,92914.00
2023-03-16T09:32:13.020Z,92910.00
2023-03-16T09:33:13.115Z,92908.00
2023-03-16T09:34:13.092Z,92906.00
2023-03-16T09:35:13.250Z,92908.00
2023-03-16T09:36:13.213Z,92906.00
2023-03-16T09:37:13.249Z,92904.00
2023-03-16T09:38:13.311Z,92896.00
2023-03-16T09:39:14.171Z,92894.00
2023-03-16T09:40:13.446Z,92892.00
2023-03-16T09:41:13.475Z,92890.00
2023-03-16T09:42:13.544Z,92884.00
2023-03-16T09:43:13.609Z,92880.00
2023-03-16T09:44:13.701Z,92884.00
2023-03-16T09:45:13.794Z,92884.00
2023-03-16T09:46:13.926Z,92879.00
2023-03-16T09:47:14.752Z,92877.00
2023-03-16T09:48:14.067Z,92880.00
2023-03-16T09:49:14.175Z,92879.00
2023-03-16T09:50:14.293Z,92871.00
2023-03-16T09:51:14.466Z,92867.00
2023-03-16T09:52:14.495Z,92871.00
2023-03-16T09:53:14.610Z,92865.00
2023-03-16T09:54:14.720Z,92865.00
2023-03-16T09:55:14.824Z,92865.00
2023-03-16T09:56:14.938Z,92859.00
2023-03-16T09:57:15.049Z,92861.00
2023-03-16T09:58:15.166Z,92857.00
2023-03-16T09:59:15.269Z,92855.00
2023-03-16T10:00:16.319Z,92855.00
2023-03-16T10:01:15.401Z,92851.00
2023-03-16T10:02:15.413Z,92853.00
2023-03-16T10:03:15.462Z,92849.00
2023-03-16T10:04:15.604Z,92847.00
2023-03-16T10:05:15.562Z,92845.00
2023-03-16T10:06:15.608Z,92843.00
2023-03-16T10:07:15.658Z,92843.00
2023-03-16T10:08:15.748Z,92843.00
2023-03-16T10:09:15.885Z,92837.00
2023-03-16T10:53:21.293Z,92769.00
2023-03-16T10:55:20.692Z,92769.00
2023-03-16T10:56:20.785Z,92765.00
2023-03-16T10:57:21.024Z,92765.00
2023-03-16T10:58:20.978Z,92763.00
2023-03-16T10:59:21.095Z,92761.00
2023-03-16T11:00:21.228Z,92763.00
2023-03-16T11:01:21.944Z,92765.00
2023-03-16T11:02:21.372Z,92763.00
2023-03-16T11:03:21.469Z,92759.00
2023-03-16T11:04:21.579Z,92759.00
2023-03-16T11:05:21.665Z,92755.00
2023-03-16T11:06:21.757Z,92753.00
2023-03-16T11:07:21.864Z,92751.00
2023-03-16T11:08:21.959Z,92749.00
2023-03-16T11:09:22.033Z,92744.00
2023-03-16T11:10:22.120Z,92746.00
2023-03-16T11:11:22.225Z,92744.00
2023-03-16T11:12:22.287Z,92742.00
2023-03-16T11:13:22.460Z,92736.00
2023-03-16T11:14:22.439Z,92738.00
2023-03-16T11:15:26.541Z,92734.00
2023-03-16T11:16:22.633Z,92730.00
2023-03-16T11:17:22.552Z,92726.00
2023-03-16T11:18:22.573Z,92728.00
2023-03-16T11:19:22.591Z,92724.00
2023-03-16T11:20:22.668Z,92724.00
2023-03-16T11:21:22.650Z,92720.00
2023-03-16T11:22:22.661Z,92716.00
2023-03-16T11:23:22.684Z,92708.00
2023-03-16T11:24:22.712Z,92710.00
2023-03-16T11:25:22.726Z,92708.00
2023-03-16T11:26:22.744Z,92706.00
2023-03-16T11:27:22.742Z,92706.00
2023-03-16T11:28:23.308Z,92704.00
2023-03-16T11:29:23.300Z,92706.00
2023-03-16T11:30:22.776Z,92702.00
2023-03-16T11:31:22.852Z,92700.00
2023-03-16T11:32:22.807Z,92700.00
2023-03-16T11:33:22.814Z,92700.00
2023-03-16T11:34:22.833Z,92698.00
2023-03-16T11:35:22.820Z,92696.00
2023-03-16T11:36:22.820Z,92698.00
2023-03-16T11:37:22.830Z,92696.00
2023-03-16T11:38:22.836Z,92693.00
2023-03-16T11:39:22.840Z,92693.00
2023-03-16T11:40:22.849Z,92693.00
2023-03-16T11:41:22.863Z,92693.00
2023-03-16T11:42:23.806Z,92689.00
2023-03-16T11:43:22.867Z,92689.00
2023-03-16T11:44:22.875Z,92685.00
2023-03-16T11:45:23.807Z,92685.00
2023-03-16T11:46:23.062Z,92685.00
2023-03-16T11:47:22.891Z,92683.00
2023-03-16T11:48:22.896Z,92685.00
2023-03-16T11:49:22.894Z,92683.00
2023-03-16T11:50:22.976Z,92681.00
2023-03-16T11:51:22.896Z,92681.00
2023-03-16T11:52:22.907Z,92679.00
2023-03-16T11:54:22.978Z,92681.00
2023-03-16T11:55:22.930Z,92679.00
2023-03-16T11:56:22.913Z,92675.00
2023-03-16T11:58:24.824Z,92673.00
2023-03-16T11:59:22.927Z,92671.00
2023-03-16T12:00:22.949Z,92669.00
2023-03-16T12:01:23.039Z,92663.00
2023-03-16T12:02:23.147Z,92661.00
2023-03-16T12:03:23.146Z,92661.00
2023-03-16T12:04:23.210Z,92657.00
2023-03-16T12:05:22.954Z,92657.00
2023-03-16T12:06:23.917Z,92655.00
2023-03-16T12:07:22.968Z,92653.00
2023-03-16T12:08:22.986Z,92649.00
2023-03-16T12:09:22.993Z,92651.00
2023-03-16T12:10:23.005Z,92649.00
2023-03-16T12:11:23.013Z,92647.00
2023-03-16T12:12:23.061Z,92647.00
2023-03-16T12:13:23.119Z,92640.00
2023-03-16T12:14:23.179Z,92640.00
2023-03-16T12:15:23.320Z,92638.00
2023-03-16T12:16:23.411Z,92634.00
2023-03-16T12:17:23.354Z,92638.00
2023-03-16T12:18:23.433Z,92634.00
2023-03-16T12:19:23.478Z,92630.00
2023-03-16T12:20:23.532Z,92632.00
2023-03-16T12:21:23.665Z,92626.00
2023-03-16T12:22:23.645Z,92624.00
2023-03-16T12:23:23.706Z,92618.00
2023-03-16T12:24:23.758Z,92614.00
2023-03-16T12:25:23.817Z,92616.00
2023-03-16T12:26:23.890Z,92612.00
2023-03-16T12:27:23.985Z,92612.00
2023-03-16T12:28:24.014Z,92610.00
2023-03-16T12:29:24.066Z,92612.00
2023-03-16T12:30:24.152Z,92616.00
2023-03-16T12:31:24.258Z,92616.00
2023-03-16T12:32:24.386Z,92612.00
2023-03-16T12:33:24.361Z,92612.00
2023-03-16T12:34:24.451Z,92612.00
2023-03-16T12:35:24.523Z,92606.00
2023-03-16T12:36:24.585Z,92608.00
2023-03-16T12:37:24.685Z,92604.00
2023-03-16T12:38:24.739Z,92606.00
2023-03-16T12:39:24.793Z,92600.00
2023-03-16T12:40:24.864Z,92602.00
2023-03-16T12:41:24.959Z,92600.00
2023-03-16T12:42:24.997Z,92604.00
2023-03-16T12:43:25.053Z,92598.00
2023-03-16T12:44:25.134Z,92598.00
2023-03-16T12:45:25.208Z,92604.00
2023-03-16T12:46:25.295Z,92598.00
2023-03-16T12:47:25.364Z,92600.00
2023-03-16T12:48:25.576Z,92596.00
2023-03-16T12:51:25.764Z,92589.00
2023-03-16T13:02:26.634Z,92591.00
2023-03-16T13:03:26.712Z,92591.00
2023-03-16T13:04:26.820Z,92591.00
2023-03-16T13:05:27.329Z,92591.00
2023-03-16T13:07:27.063Z,92587.00
2023-03-16T14:10:30.612Z,92540.00
2023-03-16T14:11:31.368Z,92538.00
2023-03-16T14:12:30.667Z,92538.00
2023-03-16T14:13:30.706Z,92538.00
2023-03-16T14:14:30.761Z,92536.00
2023-03-16T14:15:31.222Z,92538.00
2023-03-16T14:16:30.802Z,92538.00
2023-03-16T14:17:30.833Z,92538.00
2023-03-16T14:18:30.846Z,92534.00
2023-03-16T14:19:30.883Z,92532.00
2023-03-16T14:20:33.135Z,92530.00
2023-03-16T14:21:30.929Z,92530.00
2023-03-16T14:22:30.946Z,92528.00
2023-03-16T14:23:30.968Z,92526.00
2023-03-16T14:24:31.046Z,92522.00
2023-03-16T14:25:31.524Z,92524.00
2023-03-16T14:26:31.017Z,92528.00
2023-03-16T14:27:31.037Z,92532.00
2023-03-16T14:28:32.311Z,92526.00
2023-03-16T14:29:31.116Z,92528.00
2023-03-16T14:30:31.092Z,92530.00
2023-03-16T14:31:31.137Z,92530.00
2023-03-16T14:32:31.181Z,92528.00
2023-03-16T14:33:31.140Z,92526.00
2023-03-16T14:34:31.156Z,92526.00
2023-03-16T14:35:31.552Z,92524.00
2023-03-16T14:36:31.185Z,92524.00
2023-03-16T14:37:31.201Z,92522.00
2023-03-16T14:38:31.219Z,92524.00
2023-03-16T14:39:31.265Z,92520.00
2023-03-16T14:40:31.246Z,92524.00
2023-03-16T14:41:31.270Z,92524.00
2023-03-16T14:42:31.301Z,92524.00
2023-03-16T14:43:31.315Z,92520.00
2023-03-16T14:44:31.321Z,92516.00
2023-03-16T14:45:31.592Z,92516.00
2023-03-16T14:46:31.391Z,92518.00
2023-03-16T14:47:31.380Z,92516.00
2023-03-16T14:48:31.392Z,92518.00
2023-03-16T14:49:31.455Z,92522.00
2023-03-16T14:50:31.434Z,92522.00
2023-03-16T14:51:31.473Z,92524.00
2023-03-16T14:52:31.480Z,92520.00
2023-03-16T14:53:31.486Z,92524.00
2023-03-16T14:54:31.524Z,92522.00
2023-03-16T14:55:31.936Z,92524.00
2023-03-16T14:56:31.552Z,92524.00
2023-03-16T14:57:31.542Z,92522.00
2023-03-16T14:58:31.561Z,92526.00
2023-03-16T14:59:31.584Z,92524.00
2023-03-16T15:00:37.046Z,92526.00
2023-03-16T15:01:32.629Z,92526.00
2023-03-16T15:02:31.621Z,92526.00
2023-03-16T15:03:31.630Z,92528.00
2023-03-16T15:04:31.627Z,92530.00
2023-03-16T15:05:31.899Z,92528.00
2023-03-16T15:06:31.647Z,92528.00
2023-03-16T15:07:31.682Z,92526.00
2023-03-16T15:08:31.689Z,92526.00
2023-03-16T15:09:31.708Z,92526.00
2023-03-16T15:10:31.969Z,92528.00
2023-03-16T15:20:31.918Z,92526.00
2023-03-16T15:23:31.971Z,92524.00
2023-03-16T15:24:32.068Z,92524.00
2023-03-16T15:25:32.008Z,92526.00
2023-03-16T15:26:32.034Z,92530.00
2023-03-16T15:27:32.399Z,92530.00
2023-03-16T15:28:32.091Z,92532.00
2023-03-16T15:29:32.085Z,92534.00
2023-03-16T15:30:32.909Z,92534.00
2023-03-16T15:31:32.187Z,92534.00
2023-03-16T15:32:32.155Z,92536.00
2023-03-16T15:33:32.161Z,92532.00
2023-03-16T15:34:32.188Z,92540.00
2023-03-16T15:35:32.233Z,92536.00
2023-03-16T15:36:32.219Z,92536.00
2023-03-16T15:37:32.317Z,92536.00
2023-03-16T15:38:32.240Z,92536.00
2023-03-16T15:39:32.926Z,92532.00
2023-03-16T15:40:32.273Z,92534.00
2023-03-16T15:41:41.589Z,92532.00
2023-03-16T15:42:33.312Z,92532.00
2023-03-16T15:43:32.313Z,92536.00
2023-03-16T15:44:32.343Z,92540.00
2023-03-16T15:45:32.360Z,92538.00
2023-03-16T15:46:32.418Z,92540.00
2023-03-16T15:47:32.378Z,92540.00
2023-03-16T15:48:32.407Z,92538.00
2023-03-16T15:49:41.237Z,92538.00
2023-03-16T15:51:32.440Z,92540.00
2023-03-16T15:53:35.297Z,92542.00
2023-03-16T15:54:32.465Z,92542.00
2023-03-16T15:55:32.469Z,92544.00
2023-03-16T15:56:36.636Z,92542.00
2023-03-16T15:58:32.638Z,92540.00
2023-03-16T15:59:32.543Z,92540.00
2023-03-16T16:00:32.648Z,92544.00
2023-03-16T16:01:32.572Z,92540.00
2023-03-16T16:02:32.614Z,92544.00
2023-03-16T16:03:32.600Z,92542.00
2023-03-16T16:04:32.681Z,92544.00
2023-03-16T16:05:32.637Z,92544.00
2023-03-16T16:06:32.710Z,92540.00
2023-03-16T16:07:32.752Z,92542.00
2023-03-16T16:08:32.713Z,92542.00
2023-03-16T16:09:32.714Z,92544.00
2023-03-16T16:10:32.733Z,92542.00
2023-03-16T16:11:32.749Z,92542.00
2023-03-16T16:13:43.443Z,92540.00
2023-03-16T16:15:32.805Z,92540.00
2023-03-16T16:16:32.828Z,92538.00
2023-03-16T16:17:50.688Z,92538.00
2023-03-16T16:19:32.865Z,92540.00
2023-03-16T16:20:32.920Z,92540.00
2023-03-16T16:21:32.902Z,92542.00
2023-03-16T16:22:32.927Z,92546.00
2023-03-16T16:23:32.945Z,92544.00
2023-03-16T16:24:32.955Z,92544.00
2023-03-16T16:25:32.985Z,92546.00
2023-03-16T16:26:48.153Z,92544.00
2023-03-16T16:28:33.059Z,92544.00
2023-03-16T16:29:33.054Z,92548.00
2023-03-16T16:30:33.127Z,92548.00
2023-03-16T16:31:33.143Z,92548.00
2023-03-16T16:32:33.124Z,92548.00
2023-03-16T16:33:33.141Z,92552.00
2023-03-16T16:34:33.138Z,92552.00
2023-03-16T16:35:33.247Z,92554.00
2023-03-16T16:36:33.184Z,92550.00
2023-03-16T16:37:33.266Z,92552.00
2023-03-16T16:38:33.271Z,92552.00
2023-03-16T16:39:33.251Z,92554.00
2023-03-16T16:41:33.281Z,92558.00
2023-03-16T16:42:33.303Z,92558.00
2023-03-16T16:43:33.361Z,92561.00
2023-03-16T16:44:35.698Z,92563.00
2023-03-16T19:21:40.680Z,92798.00
2023-03-16T19:22:40.756Z,92796.00
2023-03-16T19:23:40.829Z,92800.00
2023-03-16T19:24:40.974Z,92802.00
2023-03-16T19:25:41.034Z,92806.00
2023-03-16T19:26:41.045Z,92804.00
2023-03-16T19:27:41.104Z,92804.00
2023-03-16T19:28:41.168Z,92808.00
2023-03-16T19:29:41.253Z,92808.00
2023-03-16T19:30:41.319Z,92810.00
2023-03-16T19:31:41.426Z,92812.00
2023-03-16T19:32:41.517Z,92814.00
2023-03-16T19:33:42.485Z,92818.00
2023-03-16T19:34:41.613Z,92816.00
2023-03-16T19:35:51.542Z,92818.00
2023-03-16T19:36:42.713Z,92820.00
2023-03-16T19:37:41.743Z,92822.00
2023-03-16T19:38:41.772Z,92820.00
2023-03-16T19:39:41.806Z,92822.00
2023-03-16T19:40:41.825Z,92824.00
2023-03-16T19:41:41.867Z,92826.00
2023-03-16T19:42:41.901Z,92820.00
2023-03-16T19:43:41.921Z,92826.00
2023-03-16T19:44:42.026Z,92822.00
2023-03-16T19:45:42.007Z,92826.00
2023-03-16T19:46:42.986Z,92826.00
2023-03-16T19:47:42.039Z,92833.00
2023-03-16T19:48:42.044Z,92835.00
2023-03-16T19:49:42.065Z,92835.00
2023-03-16T19:50:42.990Z,92835.00
2023-03-16T19:51:42.204Z,92835.00
2023-03-16T19:52:42.350Z,92826.00
2023-03-16T19:53:42.368Z,92833.00
2023-03-16T19:54:42.450Z,92837.00
2023-03-16T19:55:42.496Z,92833.00
2023-03-16T19:56:42.580Z,92839.00
2023-03-16T19:57:42.640Z,92833.00
2023-03-16T19:58:42.734Z,92835.00
2023-03-16T19:59:42.780Z,92839.00
2023-03-16T20:00:42.852Z,92841.00
2023-03-16T20:01:42.976Z,92839.00
2023-03-16T20:02:42.990Z,92841.00
2023-03-16T20:03:43.051Z,92841.00
2023-03-16T20:04:43.152Z,92839.00
2023-03-16T20:05:43.198Z,92839.00
2023-03-16T20:06:43.270Z,92841.00
2023-03-16T20:07:43.346Z,92843.00
2023-03-16T20:08:43.419Z,92845.00
2023-03-16T20:09:43.495Z,92847.00
2023-03-16T20:10:43.562Z,92847.00
2023-03-16T20:11:43.626Z,92849.00
2023-03-16T20:12:43.695Z,92849.00
2023-03-16T20:13:43.766Z,92851.00
2023-03-16T20:14:43.839Z,92851.00
2023-03-16T20:15:43.916Z,92851.00
2023-03-16T20:16:44.002Z,92849.00
2023-03-16T20:17:44.048Z,92851.00
2023-03-16T20:18:44.131Z,92851.00
2023-03-16T20:19:44.190Z,92849.00
2023-03-16T20:20:44.276Z,92855.00
2023-03-16T20:21:44.347Z,92851.00
2023-03-16T20:22:44.417Z,92851.00
2023-03-16T20:23:44.499Z,92853.00
2023-03-16T20:24:44.568Z,92853.00
2023-03-16T20:25:44.621Z,92851.00
2023-03-16T20:26:44.715Z,92855.00
2023-03-16T20:27:44.767Z,92855.00
2023-03-16T20:28:44.853Z,92857.00
2023-03-16T20:29:44.915Z,92855.00
2023-03-16T20:30:45.022Z,92853.00
2023-03-16T20:31:45.039Z,92853.00
2023-03-16T20:32:45.113Z,92855.00
2023-03-16T20:33:45.189Z,92857.00
2023-03-16T20:34:45.248Z,92853.00
2023-03-16T20:35:45.372Z,92855.00
2023-03-16T20:36:45.388Z,92855.00
2023-03-16T20:37:45.469Z,92853.00
2023-03-16T20:38:45.549Z,92853.00
2023-03-16T20:39:45.589Z,92853.00
2023-03-16T20:40:45.664Z,92853.00
2023-03-16T20:41:45.734Z,92855.00
2023-03-16T20:42:45.804Z,92857.00
2023-03-16T20:43:46.018Z,92855.00
2023-03-16T20:44:46.025Z,92857.00
2023-03-16T20:45:46.183Z,92857.00
2023-03-16T20:46:46.122Z,92855.00
2023-03-16T20:47:46.146Z,92855.00
2023-03-16T20:48:46.215Z,92853.00
2023-03-16T20:49:46.289Z,92853.00
2023-03-16T20:50:46.354Z,92853.00
2023-03-16T20:51:46.421Z,92855.00
2023-03-16T20:52:46.494Z,92853.00
2023-03-16T20:53:46.563Z,92855.00
2023-03-16T20:54:46.623Z,92855.00
2023-03-16T21:10:47.688Z,92875.00
2023-03-16T21:11:47.786Z,92867.00
2023-03-16T21:52:51.537Z,92863.00
2023-03-16T21:53:50.703Z,92863.00
2023-03-16T21:54:50.841Z,92865.00
2023-03-16T21:55:50.852Z,92865.00
2023-03-16T21:56:50.925Z,92863.00
2023-03-16T21:57:51.015Z,92865.00
2023-03-16T21:58:51.089Z,92861.00
2023-03-16T21:59:51.154Z,92863.00
2023-03-16T22:00:51.233Z,92861.00
2023-03-16T22:02:01.572Z,92861.00
2023-03-16T22:02:52.482Z,92857.00
2023-03-16T22:03:51.617Z,92859.00
2023-03-16T22:04:51.400Z,92857.00
2023-03-16T22:05:51.422Z,92857.00
2023-03-16T22:06:51.444Z,92857.00
2023-03-16T22:07:51.476Z,92859.00
2023-03-16T22:08:51.551Z,92857.00
2023-03-16T22:09:51.541Z,92855.00
2023-03-16T22:10:51.583Z,92853.00
2023-03-16T22:11:51.644Z,92849.00
2023-03-16T22:12:51.647Z,92851.00
2023-03-16T22:13:51.692Z,92849.00
2023-03-16T22:14:52.037Z,92851.00
2023-03-16T22:15:51.802Z,92851.00
2023-03-16T22:16:51.882Z,92851.00
2023-03-16T22:17:51.947Z,92853.00
2023-03-16T22:18:52.048Z,92853.00
2023-03-16T22:19:52.108Z,92857.00
2023-03-16T22:20:52.180Z,92857.00
2023-03-16T22:21:52.260Z,92859.00
2023-03-16T22:22:52.351Z,92861.00
2023-03-16T22:23:52.412Z,92859.00
2023-03-16T22:24:52.483Z,92857.00
2023-03-16T22:25:52.618Z,92863.00
2023-03-16T22:26:52.641Z,92861.00
2023-03-16T22:27:53.544Z,92859.00
2023-03-16T22:28:52.808Z,92857.00
2023-03-16T22:29:52.884Z,92857.00
2023-03-16T22:30:52.942Z,92857.00
2023-03-16T22:31:53.109Z,92859.00
2023-03-16T22:32:53.140Z,92859.00
2023-03-16T22:33:54.040Z,92855.00
2023-03-16T22:34:53.249Z,92857.00
2023-03-16T22:35:53.366Z,92857.00
2023-03-16T22:36:53.395Z,92859.00
2023-03-16T22:37:53.480Z,92859.00
2023-03-16T22:38:53.554Z,92859.00
2023-03-16T22:39:53.645Z,92863.00
2023-03-16T22:40:54.043Z,92859.00
2023-03-16T22:41:53.775Z,92861.00
2023-03-16T22:42:53.851Z,92861.00
2023-03-16T22:43:53.924Z,92861.00
2023-03-16T22:44:54.001Z,92859.00